Time;durP1;ratioP1;P1;durP2;ratioP2;P2;SDS_P1;SDS_P2;PMS_P1;PMS_P2;Temp;Humidity;BMP_temperature;BMP_pressure;BME280_temperature;BME280_humidity;BME280_pressure;Samples;Min_cycle;Max_cycle;Signal;HPM_P1;HPM_P2
2021/11/24 00:00:43;;;;;;;35.35;16.62;;;;;;;-2.12;78.06;98655.99;1669732;86;21021;-74
2021/11/24 00:03:12;;;;;;;35.38;15.25;;;;;;;-2.16;77.85;98655.45;1677856;85;21161;-75
2021/11/24 00:05:38;;;;;;;30.35;15.65;;;;;;;-2.16;78.18;98665.84;1673467;86;20978;-74
2021/11/24 00:08:05;;;;;;;30.68;13.98;;;;;;;-2.17;78.06;98662.76;1687297;84;20958;-74
2021/11/24 00:22:50;;;;;;;36.93;15.75;;;;;;;-2.36;78.10;98668.67;1684334;83;21153;-74
2021/11/24 00:25:17;;;;;;;34.58;14.90;;;;;;;-2.36;78.30;98672.57;1674469;85;21029;-74
2021/11/24 00:27:43;;;;;;;33.02;14.73;;;;;;;-2.45;78.30;98673.13;1686146;84;21001;-74
2021/11/24 00:30:10;;;;;;;32.58;15.03;;;;;;;-2.45;79.00;98672.27;1680762;84;21010;-74
2021/11/24 00:32:37;;;;;;;33.38;15.05;;;;;;;-2.51;78.75;98665.14;1670325;85;21054;-75
2021/11/24 00:35:06;;;;;;;33.28;15.30;;;;;;;-2.54;78.62;98670.22;1669636;85;21423;-75
2021/11/24 00:37:33;;;;;;;33.05;15.32;;;;;;;-2.55;78.74;98664.16;1669273;85;21057;-73
2021/11/24 00:40:01;;;;;;;35.15;16.10;;;;;;;-2.58;78.48;98666.64;1665829;85;21113;-73
2021/11/24 00:42:28;;;;;;;27.95;13.58;;;;;;;-2.62;78.50;98666.50;1641001;87;21034;-73
2021/11/24 00:44:54;;;;;;;34.92;15.48;;;;;;;-2.63;78.56;98669.94;1641243;87;21097;-74
2021/11/24 00:47:20;;;;;;;30.55;14.60;;;;;;;-2.65;78.72;98660.79;1646998;85;21001;-74
2021/11/24 00:49:47;;;;;;;30.50;14.60;;;;;;;-2.66;78.88;98659.03;1680809;85;21403;-74
2021/11/24 00:52:13;;;;;;;35.08;16.52;;;;;;;-2.61;79.02;98675.64;1676148;85;21120;-74
2021/11/24 00:54:40;;;;;;;34.18;14.85;;;;;;;-2.63;79.06;98669.50;1670318;85;21033;-74
2021/11/24 00:57:06;;;;;;;33.63;15.90;;;;;;;-2.66;79.71;98666.81;1669164;85;21495;-74
2021/11/24 00:59:33;;;;;;;31.25;15.93;;;;;;;-2.73;79.44;98668.31;1669445;85;21009;-74
2021/11/24 01:02:00;;;;;;;31.50;14.90;;;;;;;-2.75;79.47;98668.66;1682601;85;21459;-74
2021/11/24 01:04:26;;;;;;;29.57;14.40;;;;;;;-2.72;79.19;98673.97;1672277;85;21427;-74
2021/11/24 01:06:52;;;;;;;31.90;15.23;;;;;;;-2.75;79.59;98667.80;1669593;86;21451;-74
2021/11/24 01:09:20;;;;;;;35.00;16.00;;;;;;;-2.74;79.35;98666.96;1671580;85;21029;-74
2021/11/24 01:11:47;;;;;;;35.65;15.72;;;;;;;-2.71;79.30;98663.16;1681544;85;20958;-74
2021/11/24 01:14:14;;;;;;;30.40;15.38;;;;;;;-2.74;79.11;98672.15;1671994;85;21018;-74
2021/11/24 01:16:42;;;;;;;34.75;15.68;;;;;;;-2.72;79.30;98670.08;1677502;85;21022;-74
2021/11/24 01:19:09;;;;;;;33.95;14.10;;;;;;;-2.73;79.24;98668.72;1669212;86;21093;-74
2021/11/24 01:21:35;;;;;;;35.75;13.60;;;;;;;-2.74;79.22;98667.82;1674559;84;21017;-73
2021/11/24 01:24:02;;;;;;;25.80;11.83;;;;;;;-2.74;79.29;98669.13;1666446;85;21041;-73
2021/11/24 01:26:28;;;;;;;23.40;11.25;;;;;;;-2.80;79.25;98665.92;1670180;85;21053;-73
2021/11/24 01:28:55;;;;;;;28.62;13.18;;;;;;;-2.82;79.30;98664.97;1669351;85;21515;-74
2021/11/24 01:31:21;;;;;;;22.62;10.98;;;;;;;-2.79;79.14;98670.67;1669619;85;20958;-73
2021/11/24 01:33:48;;;;;;;26.00;13.15;;;;;;;-2.84;79.58;98665.34;1669691;85;21069;-73
2021/11/24 01:36:15;;;;;;;25.57;12.40;;;;;;;-2.85;79.14;98660.98;1669475;85;21029;-73
2021/11/24 01:38:41;;;;;;;27.82;12.73;;;;;;;-2.86;79.03;98664.82;1672148;84;21014;-73
2021/11/24 01:41:08;;;;;;;26.57;12.07;;;;;;;-2.90;79.09;98666.84;1685102;85;21031;-73
2021/11/24 01:43:34;;;;;;;25.27;11.68;;;;;;;-2.91;79.12;98655.56;1642258;87;21463;-73
2021/11/24 01:46:01;;;;;;;26.70;11.90;;;;;;;-2.92;79.06;98660.29;1642162;86;21009;-73
2021/11/24 01:48:28;;;;;;;24.15;11.68;;;;;;;-2.93;79.24;98662.02;1642203;87;21042;-73
2021/11/24 01:50:58;;;;;;;22.42;11.48;;;;;;;-2.90;79.09;98661.25;1660323;85;21028;-73
2021/11/24 01:53:26;;;;;;;24.52;12.03;;;;;;;-2.92;79.15;98658.99;1677894;85;21069;-73
2021/11/24 01:55:55;;;;;;;23.87;10.72;;;;;;;-2.92;79.30;98658.99;1646005;85;21005;-73
2021/11/24 01:58:24;;;;;;;23.35;10.88;;;;;;;-2.94;79.23;98652.45;1655719;86;21376;-73
2021/11/24 02:00:52;;;;;;;24.07;11.35;;;;;;;-2.96;79.21;98661.00;1666545;84;21025;-73
2021/11/24 02:03:20;;;;;;;24.63;12.00;;;;;;;-2.98;79.11;98661.38;1672859;84;21511;-73
2021/11/24 02:05:46;;;;;;;23.57;10.58;;;;;;;-3.00;79.16;98657.86;1676209;85;21452;-73
2021/11/24 02:08:13;;;;;;;24.05;11.35;;;;;;;-3.06;79.22;98668.45;1676135;85;21022;-73
2021/11/24 02:10:39;;;;;;;22.73;10.70;;;;;;;-3.03;79.26;98656.45;1671333;85;21065;-73
2021/11/24 02:13:06;;;;;;;23.92;10.85;;;;;;;-3.03;79.28;98662.53;1680753;85;21069;-73
2021/11/24 02:15:32;;;;;;;24.87;10.70;;;;;;;-3.06;79.17;98645.55;1683273;85;21073;-74
2021/11/24 02:18:05;;;;;;;23.25;11.22;;;;;;;-3.07;79.25;98668.00;1683685;85;21490;-73
2021/11/24 02:20:42;;;;;;;20.45;9.70;;;;;;;-3.07;79.26;98669.73;1681971;84;21002;-73
2021/11/24 02:23:11;;;;;;;19.50;9.23;;;;;;;-3.09;79.15;98660.98;1655888;85;21011;-73
2021/11/24 02:25:40;;;;;;;18.48;8.68;;;;;;;-3.09;79.13;98663.58;1683411;84;21058;-73
2021/11/24 02:28:07;;;;;;;19.12;8.93;;;;;;;-3.12;79.28;98657.88;1680222;84;21418;-74
2021/11/24 02:30:34;;;;;;;18.07;8.73;;;;;;;-3.13;79.26;98663.89;1676535;85;21018;-74
2021/11/24 02:33:02;;;;;;;19.10;8.90;;;;;;;-3.15;79.26;98659.08;1682248;84;21001;-74
2021/11/24 02:35:30;;;;;;;14.25;8.05;;;;;;;-3.15;79.38;98664.66;1683116;85;21066;-74
2021/11/24 02:37:57;;;;;;;21.12;8.60;;;;;;;-3.18;79.26;98660.25;1683174;85;21040;-74
2021/11/24 02:40:30;;;;;;;19.17;9.60;;;;;;;-3.20;79.64;98660.63;1681960;84;20985;-73
2021/11/24 02:42:58;;;;;;;18.67;8.28;;;;;;;-3.17;79.59;98663.74;1668994;85;21029;-74
2021/11/24 02:45:26;;;;;;;17.75;8.48;;;;;;;-3.19;79.50;98668.43;1669046;85;21374;-73
2021/11/24 02:47:53;;;;;;;17.25;8.40;;;;;;;-3.21;79.40;98664.91;1668988;86;21002;-74
2021/11/24 02:50:20;;;;;;;15.60;8.25;;;;;;;-3.20;79.25;98676.19;1671352;85;21154;-74
2021/11/24 02:52:47;;;;;;;18.40;8.83;;;;;;;-3.22;79.35;98671.33;1670245;85;21036;-73
2021/11/24 02:55:15;;;;;;;19.23;8.83;;;;;;;-3.23;79.48;98665.28;1676380;85;20993;-73
2021/11/24 02:57:47;;;;;;;16.57;7.60;;;;;;;-3.21;79.36;98669.20;1665868;85;21018;-74
2021/11/24 03:00:21;;;;;;;15.95;8.05;;;;;;;-3.22;79.44;98673.53;1678581;84;21017;-74
2021/11/24 03:02:49;;;;;;;15.90;7.53;;;;;;;-3.21;79.27;98670.50;1673619;85;21006;-73
2021/11/24 03:05:20;;;;;;;17.10;7.92;;;;;;;-3.24;79.45;98669.98;1669630;85;21093;-73
2021/11/24 03:07:47;;;;;;;18.42;7.92;;;;;;;-3.24;79.36;98671.27;1669419;85;21061;-73
2021/11/24 03:10:15;;;;;;;17.87;7.75;;;;;;;-3.22;79.35;98675.22;1672639;85;21022;-73
2021/11/24 03:12:41;;;;;;;14.35;7.83;;;;;;;-3.25;79.30;98673.41;1672697;85;20990;-74
2021/11/24 03:15:10;;;;;;;13.08;7.30;;;;;;;-3.24;79.29;98676.89;1676437;85;21045;-73
2021/11/24 03:17:38;;;;;;;13.83;6.70;;;;;;;-3.24;79.56;98676.89;1676787;85;21104;-74
2021/11/24 03:20:08;;;;;;;17.95;8.45;;;;;;;-3.28;79.42;98674.58;1671685;85;21152;-74
2021/11/24 03:22:37;;;;;;;17.67;8.23;;;;;;;-3.24;79.35;98674.30;1643404;85;21092;-73
2021/11/24 03:25:06;;;;;;;18.15;7.55;;;;;;;-3.28;79.32;98669.39;1660067;85;21423;-74
2021/11/24 03:27:37;;;;;;;19.17;7.62;;;;;;;-3.26;79.19;98675.53;1677660;85;21036;-74
2021/11/24 03:30:09;;;;;;;13.48;6.58;;;;;;;-3.27;79.22;98670.28;1681739;84;21443;-74
2021/11/24 03:32:35;;;;;;;14.53;7.70;;;;;;;-3.28;79.34;98666.80;1686536;84;21077;-73
2021/11/24 03:35:02;;;;;;;16.97;7.58;;;;;;;-3.27;79.22;98668.59;1692033;84;20986;-74
2021/11/24 03:37:30;;;;;;;15.55;6.97;;;;;;;-3.33;79.36;98670.93;1671962;84;22056;-74
2021/11/24 03:39:57;;;;;;;14.50;7.15;;;;;;;-3.33;79.22;98671.83;1675697;84;21096;-73
2021/11/24 03:42:23;;;;;;;13.62;6.78;;;;;;;-3.32;79.18;98666.24;1682591;84;21002;-74
2021/11/24 03:44:51;;;;;;;16.40;7.17;;;;;;;-3.35;79.22;98672.20;1675657;84;21065;-74
2021/11/24 03:47:18;;;;;;;13.40;7.22;;;;;;;-3.38;79.19;98664.30;1639690;87;20994;-74
2021/11/24 03:49:46;;;;;;;13.60;7.15;;;;;;;-3.39;79.29;98671.61;1642609;87;21042;-75
2021/11/24 03:52:12;;;;;;;13.85;6.62;;;;;;;-3.40;79.47;98672.44;1669610;84;21439;-74
2021/11/24 03:54:39;;;;;;;15.25;7.20;;;;;;;-3.39;79.25;98670.31;1643054;87;21078;-74
2021/11/24 03:57:05;;;;;;;11.43;6.50;;;;;;;-3.39;79.35;98672.02;1641332;87;21471;-74
2021/11/24 03:59:32;;;;;;;13.68;6.40;;;;;;;-3.43;79.25;98672.72;1641869;85;21018;-74
2021/11/24 04:01:59;;;;;;;12.37;6.37;;;;;;;-3.42;79.28;98672.78;1662261;84;21415;-74
2021/11/24 04:04:25;;;;;;;15.40;6.30;;;;;;;-3.45;79.41;98669.66;1669751;85;21085;-74
2021/11/24 04:06:52;;;;;;;12.30;6.53;;;;;;;-3.44;79.48;98669.27;1669512;85;21033;-74
2021/11/24 04:09:18;;;;;;;16.10;6.70;;;;;;;-3.40;79.27;98668.55;1671711;85;20950;-73
2021/11/24 04:11:45;;;;;;;12.98;6.15;;;;;;;-3.40;79.33;98664.67;1683756;84;20990;-74
2021/11/24 04:14:12;;;;;;;13.00;7.00;;;;;;;-3.40;79.25;98670.25;1697655;84;21018;-75
2021/11/24 04:16:38;;;;;;;15.05;6.67;;;;;;;-3.42;79.21;98672.78;1686340;84;21411;-75
2021/11/24 04:19:05;;;;;;;14.07;7.30;;;;;;;-3.46;79.23;98671.79;1678477;84;21053;-74
2021/11/24 04:21:32;;;;;;;13.90;6.95;;;;;;;-3.45;79.15;98670.06;1683766;84;21037;-74
2021/11/24 04:23:59;;;;;;;14.68;6.87;;;;;;;-3.46;79.13;98668.30;1682414;84;21070;-75
2021/11/24 04:26:26;;;;;;;12.78;6.37;;;;;;;-3.47;79.18;98674.31;1652167;86;21127;-75
2021/11/24 04:28:53;;;;;;;11.83;6.20;;;;;;;-3.47;79.07;98673.02;1641130;87;20986;-75
2021/11/24 04:31:19;;;;;;;13.38;6.03;;;;;;;-3.48;79.12;98674.72;1669279;85;21432;-75
2021/11/24 04:33:46;;;;;;;11.48;6.25;;;;;;;-3.48;79.08;98675.16;1675940;85;21485;-75
2021/11/24 04:36:14;;;;;;;17.77;6.53;;;;;;;-3.49;79.06;98677.28;1678034;84;20999;-75
2021/11/24 04:38:41;;;;;;;14.00;6.17;;;;;;;-3.52;79.13;98679.74;1682875;85;20998;-75
2021/11/24 04:41:07;;;;;;;13.40;6.00;;;;;;;-3.52;79.17;98673.27;1679255;84;21097;-75
2021/11/24 04:43:40;;;;;;;13.60;6.00;;;;;;;-3.51;79.31;98668.55;1669261;83;20978;-75
2021/11/24 04:46:04;;;;;;;13.40;6.50;;;;;;;-3.53;79.25;98675.39;1667990;86;21042;-75
2021/11/24 04:48:31;;;;;;;13.55;6.45;;;;;;;-3.55;79.08;98675.33;1665339;85;21025;-75
2021/11/24 04:50:58;;;;;;;13.50;7.03;;;;;;;-3.55;79.38;98679.22;1662793;83;21432;-76
2021/11/24 04:53:24;;;;;;;14.15;7.00;;;;;;;-3.51;79.46;98675.02;1668774;85;20998;-73
2021/11/24 04:55:51;;;;;;;17.67;7.30;;;;;;;-3.48;79.34;98679.04;1668936;86;21030;-74
2021/11/24 04:58:17;;;;;;;11.45;7.05;;;;;;;-3.51;79.53;98682.40;1672576;85;21799;-73
2021/11/24 05:00:44;;;;;;;15.25;7.03;;;;;;;-3.51;79.63;98679.81;1653652;85;21007;-74
2021/11/24 05:03:11;;;;;;;10.78;5.85;;;;;;;-3.50;79.31;98672.89;1663690;85;21049;-74
2021/11/24 05:05:37;;;;;;;13.70;6.20;;;;;;;-3.55;79.04;98676.63;1668605;86;21038;-74
2021/11/24 05:08:05;;;;;;;13.78;6.72;;;;;;;-3.59;79.13;98679.92;1654412;83;21049;-75
2021/11/24 05:10:31;;;;;;;14.40;7.37;;;;;;;-3.62;79.07;98681.09;1656007;85;20971;-75
2021/11/24 05:12:59;;;;;;;13.53;6.78;;;;;;;-3.66;79.20;98682.69;1676252;85;21424;-75
2021/11/24 05:15:32;;;;;;;15.83;7.00;;;;;;;-3.65;79.23;98680.56;1669120;85;21021;-75
2021/11/24 05:18:06;;;;;;;15.67;7.43;;;;;;;-3.64;79.35;98674.98;1655350;85;21011;-75
2021/11/24 05:20:31;;;;;;;13.18;6.60;;;;;;;-3.65;79.25;98677.10;1664064;85;21407;-75
2021/11/24 05:23:00;;;;;;;16.15;8.55;;;;;;;-3.64;79.23;98681.05;1684839;84;21065;-75
2021/11/24 05:25:28;;;;;;;15.78;7.58;;;;;;;-3.67;79.28;98681.33;1673226;85;21052;-75
2021/11/24 05:27:56;;;;;;;13.18;7.58;;;;;;;-3.68;79.29;98677.87;1670258;85;21010;-75
2021/11/24 05:30:23;;;;;;;11.05;5.80;;;;;;;-3.71;79.24;98682.92;1657484;85;20987;-75
2021/11/24 05:32:50;;;;;;;12.33;6.65;;;;;;;-3.74;79.30;98686.71;1662481;85;21010;-74
2021/11/24 05:35:21;;;;;;;12.13;6.47;;;;;;;-3.72;79.47;98689.83;1669111;85;20994;-74
2021/11/24 05:37:45;;;;;;;14.35;6.60;;;;;;;-3.74;79.63;98686.28;1672285;85;21041;-75
2021/11/24 05:40:16;;;;;;;14.00;7.80;;;;;;;-3.69;79.83;98693.35;1678636;85;20982;-75
2021/11/24 05:42:49;;;;;;;17.80;8.03;;;;;;;-3.67;79.64;98691.69;1640471;85;21025;-75
2021/11/24 05:46:10;;;;;;;15.10;8.15;;;;;;;-3.69;79.57;98698.13;1682831;84;21079;-75
2021/11/24 05:47:54;;;;;;;23.35;10.13;;;;;;;-3.70;79.43;98706.70;1658414;84;21604;-75
2021/11/24 05:50:22;;;;;;;28.00;11.03;;;;;;;-3.72;79.48;98700.19;1680355;84;21010;-76
2021/11/24 05:52:50;;;;;;;21.17;10.15;;;;;;;-3.72;79.61;98697.60;1672202;86;21022;-75
2021/11/24 05:55:17;;;;;;;25.30;10.70;;;;;;;-3.69;79.56;98689.06;1651003;85;21136;-75
2021/11/24 05:57:44;;;;;;;21.12;10.88;;;;;;;-3.66;79.53;98702.11;1680089;84;20986;-74
2021/11/24 06:00:13;;;;;;;22.35;10.45;;;;;;;-3.66;79.32;98702.11;1685297;85;21146;-74
2021/11/24 06:02:40;;;;;;;23.02;11.15;;;;;;;-3.68;79.33;98704.17;1661356;84;21061;-74
2021/11/24 06:05:07;;;;;;;24.77;10.15;;;;;;;-3.71;79.32;98700.66;1689133;84;21080;-74
2021/11/24 06:07:34;;;;;;;26.40;11.03;;;;;;;-3.71;79.34;98707.13;1689331;84;20974;-74
2021/11/24 06:10:05;;;;;;;22.82;9.63;;;;;;;-3.75;79.38;98702.66;1689082;84;21104;-73
2021/11/24 06:12:32;;;;;;;23.55;10.95;;;;;;;-3.72;79.64;98706.67;1640712;86;21081;-74
2021/11/24 06:14:58;;;;;;;28.67;11.15;;;;;;;-3.69;79.56;98707.59;1623988;87;21001;-74
2021/11/24 06:17:26;;;;;;;32.20;12.80;;;;;;;-3.74;79.42;98703.11;1629138;87;21014;-74
2021/11/24 06:19:53;;;;;;;25.90;11.38;;;;;;;-3.76;79.26;98704.78;1682840;84;21029;-74
2021/11/24 06:22:20;;;;;;;26.45;11.65;;;;;;;-3.79;79.43;98707.67;1666394;85;21049;-74
2021/11/24 06:24:46;;;;;;;26.65;11.83;;;;;;;-3.76;79.60;98704.78;1669464;85;21494;-74
2021/11/24 06:27:13;;;;;;;26.97;11.00;;;;;;;-3.76;79.62;98711.65;1671719;83;20990;-74
2021/11/24 06:29:40;;;;;;;29.60;13.15;;;;;;;-3.76;79.57;98710.36;1669667;85;21004;-74
2021/11/24 06:32:07;;;;;;;29.32;12.98;;;;;;;-3.73;79.52;98708.77;1666898;85;20997;-74
2021/11/24 06:34:34;;;;;;;23.10;12.33;;;;;;;-3.72;79.51;98701.89;1669240;86;21010;-74
2021/11/24 06:37:00;;;;;;;23.50;11.33;;;;;;;-3.67;79.64;98710.72;1669865;85;21013;-73
2021/11/24 06:39:28;;;;;;;23.80;12.23;;;;;;;-3.61;79.45;98712.67;1684430;84;21053;-74
2021/11/24 06:41:55;;;;;;;28.62;12.10;;;;;;;-3.58;79.57;98710.18;1686357;84;21438;-75
2021/11/24 06:44:24;;;;;;;24.98;11.90;;;;;;;-3.51;79.55;98717.78;1683535;85;21024;-74
2021/11/24 06:46:52;;;;;;;27.80;11.80;;;;;;;-3.47;79.49;98717.08;1667847;84;21074;-75
2021/11/24 06:49:18;;;;;;;27.67;12.75;;;;;;;-3.41;79.54;98720.33;1684399;85;21452;-74
2021/11/24 06:51:45;;;;;;;25.40;11.90;;;;;;;-3.36;79.33;98718.80;1684325;85;20982;-74
2021/11/24 06:54:11;;;;;;;30.55;12.68;;;;;;;-3.33;79.33;98718.89;1689196;84;21013;-75
2021/11/24 06:56:37;;;;;;;26.15;12.43;;;;;;;-3.27;79.32;98716.95;1678409;85;21057;-75
2021/11/24 06:59:05;;;;;;;28.62;12.28;;;;;;;-3.24;79.27;98719.23;1672615;85;21367;-75
2021/11/24 07:01:32;;;;;;;25.85;12.73;;;;;;;-3.19;79.24;98721.58;1670491;85;21026;-75
2021/11/24 07:03:59;;;;;;;29.40;13.18;;;;;;;-3.10;79.33;98723.66;1671519;86;21002;-75
2021/11/24 07:06:25;;;;;;;35.33;13.60;;;;;;;-2.99;79.46;98726.62;1678215;85;21028;-75
2021/11/24 07:08:52;;;;;;;32.35;13.43;;;;;;;-2.91;79.26;98721.70;1680070;85;21036;-75
2021/11/24 07:11:19;;;;;;;25.37;11.50;;;;;;;-2.87;78.62;98722.30;1671761;86;21086;-75
2021/11/24 07:13:45;;;;;;;26.68;12.13;;;;;;;-2.84;78.62;98726.30;1672701;85;21744;-75
2021/11/24 07:16:11;;;;;;;28.73;13.38;;;;;;;-2.79;78.71;98720.87;1666054;85;20998;-75
2021/11/24 07:18:38;;;;;;;30.82;14.20;;;;;;;-2.72;78.64;98710.30;1680320;85;21025;-75
2021/11/24 07:21:04;;;;;;;30.08;14.60;;;;;;;-2.69;78.73;98711.67;1668755;85;21379;-75
2021/11/24 07:23:31;;;;;;;28.00;13.95;;;;;;;-2.63;78.67;98711.02;1668886;86;21144;-74
2021/11/24 07:25:57;;;;;;;26.05;13.45;;;;;;;-2.58;78.63;98715.09;1669630;84;21053;-74
2021/11/24 07:28:24;;;;;;;25.27;13.68;;;;;;;-2.52;78.72;98711.40;1669444;85;21432;-74
2021/11/24 07:30:50;;;;;;;30.97;14.28;;;;;;;-2.44;78.58;98720.34;1663092;84;21009;-74
2021/11/24 07:33:17;;;;;;;25.92;12.82;;;;;;;-2.39;78.60;98720.08;1666796;84;21037;-74
2021/11/24 07:35:43;;;;;;;25.62;12.98;;;;;;;-2.32;78.66;98716.39;1692693;83;21036;-74
2021/11/24 07:38:11;;;;;;;28.12;12.90;;;;;;;-2.22;78.46;98717.56;1696542;84;21430;-74
2021/11/24 07:40:39;;;;;;;39.03;17.05;;;;;;;-2.15;78.32;98714.35;1682927;84;21400;-74
2021/11/24 07:43:08;;;;;;;52.58;23.95;;;;;;;-2.06;78.24;98719.85;1669813;85;21507;-75
2021/11/24 07:45:35;;;;;;;24.45;11.50;;;;;;;-1.98;78.16;98726.59;1669515;84;21444;-75
2021/11/24 07:48:02;;;;;;;25.23;11.88;;;;;;;-1.91;78.17;98715.98;1672650;85;21242;-74
2021/11/24 07:50:28;;;;;;;23.02;11.22;;;;;;;-1.80;78.01;98711.11;1658066;85;20967;-74
2021/11/24 07:52:55;;;;;;;21.55;10.98;;;;;;;-1.75;77.53;98709.12;1669484;86;21030;-73
2021/11/24 07:55:23;;;;;;;19.05;10.45;;;;;;;-1.66;77.71;98708.96;1668646;84;21037;-74
2021/11/24 07:57:49;;;;;;;22.55;10.63;;;;;;;-1.56;77.65;98709.70;1674530;84;21062;-73
2021/11/24 08:00:17;;;;;;;18.35;10.10;;;;;;;-1.46;77.80;98702.64;1681749;84;21067;-73
2021/11/24 08:02:43;;;;;;;22.73;10.50;;;;;;;-1.32;77.56;98704.78;1653157;84;21040;-72
2021/11/24 08:05:10;;;;;;;20.97;10.28;;;;;;;-1.18;77.10;98701.68;1681966;85;20986;-74
2021/11/24 08:07:36;;;;;;;21.73;10.28;;;;;;;-1.10;77.03;98698.89;1664830;84;21016;-72
2021/11/24 08:10:10;;;;;;;23.57;11.10;;;;;;;-1.01;77.15;98703.06;1682305;84;21065;-73
2021/11/24 08:12:37;;;;;;;21.07;11.08;;;;;;;-0.92;75.90;98697.22;1693472;84;21007;-74
2021/11/24 08:15:06;;;;;;;17.50;10.23;;;;;;;-0.85;75.51;98702.18;1689386;84;21044;-74
2021/11/24 08:17:33;;;;;;;21.73;11.40;;;;;;;-0.78;76.31;98698.92;1681185;84;20982;-74
2021/11/24 08:20:00;;;;;;;22.50;10.75;;;;;;;-0.66;76.20;98702.28;1681228;84;21060;-75
2021/11/24 08:22:29;;;;;;;20.45;10.82;;;;;;;-0.59;74.75;98701.59;1679937;84;21427;-75
2021/11/24 08:24:55;;;;;;;16.73;9.48;;;;;;;-0.52;75.54;98706.55;1672968;85;21343;-75
2021/11/24 08:27:22;;;;;;;20.72;10.18;;;;;;;-0.40;75.70;98702.08;1681272;84;20950;-75
2021/11/24 08:29:49;;;;;;;21.55;9.33;;;;;;;-0.32;75.35;98704.87;1670048;84;21525;-77
2021/11/24 08:32:15;;;;;;;22.13;10.58;;;;;;;-0.26;75.16;98690.70;1682073;84;20939;-77
2021/11/24 08:34:42;;;;;;;21.82;9.30;;;;;;;-0.17;74.16;98705.26;1676580;84;21123;-76
2021/11/24 08:37:09;;;;;;;15.40;8.45;;;;;;;-0.09;74.55;98708.05;1637633;86;21008;-76
2021/11/24 08:39:36;;;;;;;18.27;7.72;;;;;;;-0.02;74.80;98708.68;1667113;84;21494;-76
2021/11/24 08:42:04;;;;;;;24.75;12.33;;;;;;;0.07;74.47;98710.62;1668050;84;21101;-76
2021/11/24 08:44:31;;;;;;;27.67;13.13;;;;;;;0.13;74.38;98707.30;1666921;84;21364;-76
2021/11/24 08:46:57;;;;;;;13.60;8.03;;;;;;;0.20;74.00;98706.58;1679322;84;21525;-76
2021/11/24 08:49:24;;;;;;;13.93;8.03;;;;;;;0.27;73.69;98702.39;1650618;84;20989;-75
2021/11/24 08:51:50;;;;;;;15.83;8.65;;;;;;;0.33;73.45;98702.97;1680115;85;22226;-75
2021/11/24 08:54:19;;;;;;;18.82;8.78;;;;;;;0.41;72.70;98700.53;1669653;84;21089;-75
2021/11/24 08:56:45;;;;;;;16.65;9.40;;;;;;;0.55;73.23;98709.55;1633824;87;21065;-76
2021/11/24 08:59:14;;;;;;;17.80;8.90;;;;;;;0.67;73.37;98698.91;1623059;87;21029;-75
2021/11/24 09:01:41;;;;;;;16.12;9.40;;;;;;;0.74;73.06;98704.30;1652246;86;21136;-75
2021/11/24 09:04:10;;;;;;;13.90;8.80;;;;;;;0.84;73.13;98701.88;1645906;86;21072;-76
2021/11/24 09:06:38;;;;;;;18.02;9.20;;;;;;;0.91;73.00;98698.53;1623162;86;21056;-79
2021/11/24 09:09:07;;;;;;;19.45;10.45;;;;;;;0.98;72.72;98693.02;1628547;86;21017;-76
2021/11/24 09:11:34;;;;;;;18.45;10.70;;;;;;;1.07;72.30;98691.91;1619389;86;21080;-77
2021/11/24 09:14:01;;;;;;;23.60;11.65;;;;;;;1.16;72.03;98688.62;1618581;87;21081;-79
2021/11/24 09:16:28;;;;;;;22.17;12.35;;;;;;;1.26;71.89;98679.21;1619223;88;21053;-81
2021/11/24 09:18:55;;;;;;;21.42;11.35;;;;;;;1.36;70.72;98692.03;1611635;86;21126;-82
2021/11/24 09:21:26;;;;;;;21.35;10.10;;;;;;;1.42;71.15;98682.55;1613878;87;21501;-82
2021/11/24 09:24:04;;;;;;;19.12;10.68;;;;;;;1.51;70.40;98682.27;1612017;89;21483;-80
2021/11/24 09:26:31;;;;;;;19.52;10.53;;;;;;;1.58;70.20;98677.19;1621470;86;21087;-80
2021/11/24 09:28:54;;;;;;;24.25;11.85;;;;;;;1.69;70.25;98675.18;1619431;87;21326;-79
2021/11/24 09:31:21;;;;;;;25.15;12.75;;;;;;;1.77;69.62;98675.31;1644425;86;21037;-79
2021/11/24 09:33:48;;;;;;;29.00;12.53;;;;;;;1.86;69.29;98674.60;1652358;85;21084;-78
2021/11/24 09:36:14;;;;;;;24.65;12.55;;;;;;;1.92;68.65;98672.08;1649308;85;21018;-79
2021/11/24 09:38:41;;;;;;;24.63;12.53;;;;;;;2.00;67.16;98671.79;1665790;85;21435;-79
2021/11/24 09:41:11;;;;;;;31.20;14.10;;;;;;;2.06;66.50;98666.64;1676977;84;21077;-81
2021/11/24 09:43:46;;;;;;;27.20;13.38;;;;;;;2.13;67.10;98661.09;1668426;84;21454;-80
2021/11/24 09:46:16;;;;;;;24.75;12.82;;;;;;;2.19;65.27;98657.25;1650659;84;21471;-80
2021/11/24 09:48:46;;;;;;;28.52;13.00;;;;;;;2.29;68.46;98647.81;1677241;85;20983;-76
2021/11/24 09:51:13;;;;;;;27.15;12.80;;;;;;;2.37;67.58;98645.30;1688728;84;21028;-77
2021/11/24 09:53:44;;;;;;;27.48;14.58;;;;;;;2.46;66.73;98642.78;1677650;85;20997;-78
2021/11/24 09:56:12;;;;;;;22.50;12.68;;;;;;;2.56;67.89;98649.45;1662816;85;21033;-78
2021/11/24 09:58:38;;;;;;;25.35;11.70;;;;;;;2.65;67.24;98650.89;1663516;85;20978;-77
2021/11/24 10:01:07;;;;;;;23.05;11.97;;;;;;;2.72;68.17;98648.81;1665024;85;21723;-79
2021/11/24 10:03:33;;;;;;;23.00;12.23;;;;;;;2.80;68.19;98637.13;1679904;85;21029;-77
2021/11/24 10:06:01;;;;;;;23.95;12.37;;;;;;;2.89;68.43;98634.63;1680506;85;20994;-77
2021/11/24 10:08:32;;;;;;;22.58;12.25;;;;;;;2.97;67.95;98632.51;1673204;85;21001;-77
2021/11/24 10:10:57;;;;;;;20.15;11.65;;;;;;;3.03;67.48;98626.02;1667689;84;21010;-80
2021/11/24 10:13:23;;;;;;;19.48;10.95;;;;;;;3.11;68.19;98623.52;1643775;85;21037;-79
2021/11/24 10:15:56;;;;;;;21.02;12.10;;;;;;;3.22;67.86;98619.26;1659735;85;21085;-79
2021/11/24 10:18:37;;;;;;;22.15;11.75;;;;;;;3.34;67.61;98620.23;1622595;86;21542;-76
2021/11/24 10:21:14;;;;;;;19.80;11.65;;;;;;;3.43;67.42;98621.63;1634593;86;21042;-79
2021/11/24 10:23:45;;;;;;;20.32;11.08;;;;;;;3.51;67.19;98620.39;1633077;86;21073;-78
2021/11/24 10:26:33;;;;;;;20.00;12.00;;;;;;;3.61;67.47;98616.98;1674356;84;21095;-78
2021/11/24 10:29:06;;;;;;;19.62;11.38;;;;;;;3.70;66.63;98613.58;1676701;84;21021;-77
2021/11/24 10:31:47;;;;;;;22.42;11.60;;;;;;;3.87;65.96;98619.38;1683031;84;21048;-78
2021/11/24 10:34:33;;;;;;;18.98;11.38;;;;;;;4.72;67.06;98602.81;1678899;85;21057;-79
2021/11/24 10:37:16;;;;;;;18.77;10.78;;;;;;;6.03;62.16;98603.44;1697087;84;21097;-79
2021/11/24 10:39:48;;;;;;;20.05;12.15;;;;;;;7.39;61.19;98595.41;1671812;84;21034;-79
2021/11/24 10:42:25;;;;;;;20.00;11.57;;;;;;;8.53;56.45;98578.56;1666132;84;21110;-78
2021/11/24 10:44:56;;;;;;;18.40;10.90;;;;;;;9.63;59.57;98576.14;1652086;84;21033;-79
2021/11/24 10:47:26;;;;;;;17.42;10.85;;;;;;;10.63;53.22;98577.01;1667503;85;21036;-78
2021/11/24 10:50:00;;;;;;;15.08;10.25;;;;;;;11.47;55.53;98567.20;1693577;84;21116;-77
2021/11/24 10:52:31;;;;;;;14.13;11.07;;;;;;;12.12;52.98;98559.43;1694808;84;21067;-77
2021/11/24 10:55:11;;;;;;;15.40;10.43;;;;;;;12.82;49.56;98543.30;1684308;84;21370;-79
2021/11/24 10:57:41;;;;;;;14.98;10.40;;;;;;;13.16;45.42;98548.07;1671512;84;21001;-79
2021/11/24 11:00:16;;;;;;;16.52;10.23;;;;;;;13.66;48.81;98532.72;1684339;83;21104;-76
2021/11/24 11:02:46;;;;;;;15.43;10.05;;;;;;;13.99;41.58;98540.94;1671949;85;21017;-72
2021/11/24 11:05:24;;;;;;;14.00;9.15;;;;;;;14.23;39.12;98531.22;1688969;84;21052;-75
2021/11/24 11:07:59;;;;;;;14.10;8.80;;;;;;;14.73;39.48;98532.52;1678017;84;21042;-75
2021/11/24 11:10:34;;;;;;;11.97;8.90;;;;;;;15.27;40.65;98534.92;1687878;83;21081;-75
2021/11/24 11:13:15;;;;;;;13.30;8.48;;;;;;;15.50;37.44;98532.68;1649513;86;21044;-75
2021/11/24 11:15:54;;;;;;;13.85;9.65;;;;;;;15.68;38.04;98523.02;1685439;84;20962;-75
2021/11/24 11:18:31;;;;;;;12.07;8.55;;;;;;;16.21;37.94;98517.25;1675277;83;21013;-78
2021/11/24 11:21:11;;;;;;;13.38;9.25;;;;;;;16.92;36.45;98513.61;1672740;83;21072;-76
2021/11/24 11:23:47;;;;;;;12.07;9.33;;;;;;;17.22;37.81;98516.66;1681129;84;21050;-76
2021/11/24 11:26:15;;;;;;;14.85;9.83;;;;;;;17.06;33.75;98508.98;1677815;84;21020;-75
2021/11/24 11:28:53;;;;;;;14.18;10.23;;;;;;;17.21;32.17;98506.91;1682195;83;20997;-76
2021/11/24 11:31:22;;;;;;;13.38;10.30;;;;;;;17.43;36.13;98506.33;1682570;84;21053;-77
2021/11/24 11:33:53;;;;;;;15.20;10.65;;;;;;;17.22;31.60;98497.92;1675964;84;20958;-78
2021/11/24 11:36:22;;;;;;;15.68;10.13;;;;;;;17.19;35.29;98497.20;1676921;84;21041;-77
2021/11/24 11:38:52;;;;;;;16.75;9.73;;;;;;;17.66;35.58;98491.77;1678369;84;20976;-77